Time;durP1;ratioP1;P1;durP2;ratioP2;P2;SDS_P1;SDS_P2;PMS_P1;PMS_P2;Temp;Humidity;BMP_temperature;BMP_pressure;BME280_temperature;BME280_humidity;BME280_pressure;Samples;Min_cycle;Max_cycle;Signal;HPM_P1;HPM_P2
2023/05/17 04:34:22;;;;;;;1999.90;999.90;;;;;;;;;;5212620;23;20064;-68
2023/05/17 04:36:48;;;;;;;1999.90;999.90;;;;;;;;;;5012931;28;20033;-65
2023/05/17 04:39:15;;;;;;;1999.90;999.90;;;;;;;;;;5012583;28;20022;-67
2023/05/17 04:41:41;;;;;;;1999.90;999.90;;;;;;;;;;5012931;28;20065;-65
2023/05/17 04:44:07;;;;;;;1999.90;999.90;;;;;;;;;;5012137;28;20026;-67
2023/05/17 04:46:33;;;;;;;1999.90;999.90;;;;;;;;;;4995197;28;20033;-67
2023/05/17 04:49:00;;;;;;;1999.90;999.90;;;;;;;;;;5012740;28;20060;-67
2023/05/17 04:51:26;;;;;;;1999.90;999.90;;;;;;;;;;5012371;28;20573;-67
2023/05/17 04:53:52;;;;;;;1999.90;999.90;;;;;;;;;;4994078;28;20061;-67
2023/05/17 04:56:18;;;;;;;1999.90;999.90;;;;;;;;;;4994961;28;20036;-67
2023/05/17 04:58:44;;;;;;;1999.90;999.90;;;;;;;;;;5012395;28;20034;-66
2023/05/17 05:01:11;;;;;;;1999.90;999.90;;;;;;;;;;5012308;28;20076;-66
2023/05/17 05:03:37;;;;;;;1999.90;999.90;;;;;;;;;;4994279;28;20069;-67
2023/05/17 05:06:03;;;;;;;1999.90;999.90;;;;;;;;;;4994610;28;20033;-68
2023/05/17 05:08:30;;;;;;;1999.90;999.90;;;;;;;;;;4994479;28;20026;-63
2023/05/17 05:10:56;;;;;;;1999.90;999.90;;;;;;;;;;5012114;28;20517;-63
2023/05/17 05:13:22;;;;;;;1999.90;999.90;;;;;;;;;;5011959;28;20050;-64
2023/05/17 05:15:48;;;;;;;1999.90;999.90;;;;;;;;;;5011843;28;20080;-66
2023/05/17 05:18:14;;;;;;;1999.90;999.90;;;;;;;;;;4964297;28;20026;-66
2023/05/17 05:20:40;;;;;;;1999.90;999.90;;;;;;;;;;4992310;28;20039;-66
2023/05/17 05:23:07;;;;;;;1999.90;999.90;;;;;;;;;;4994056;28;20064;-65
2023/05/17 05:25:34;;;;;;;1999.90;999.90;;;;;;;;;;4976881;28;20027;-63
2023/05/17 05:28:00;;;;;;;1999.90;999.90;;;;;;;;;;5001386;28;20022;-64
2023/05/17 05:30:26;;;;;;;1999.90;999.90;;;;;;;;;;4984232;28;20121;-65
2023/05/17 05:32:52;;;;;;;1999.90;999.90;;;;;;;;;;5002558;28;20022;-66
2023/05/17 05:35:19;;;;;;;1999.90;999.90;;;;;;;;;;4998589;28;20046;-66
2023/05/17 05:37:45;;;;;;;1999.90;999.90;;;;;;;;;;4999610;28;20038;-66
2023/05/17 05:40:13;;;;;;;1999.90;999.90;;;;;;;;;;4978849;28;20120;-62
2023/05/17 05:42:40;;;;;;;1999.90;999.90;;;;;;;;;;4999819;28;20018;-63
2023/05/17 05:45:07;;;;;;;1999.90;999.90;;;;;;;;;;4991224;28;20034;-66
2023/05/17 05:47:33;;;;;;;1999.90;999.90;;;;;;;;;;5008852;28;20713;-68
2023/05/17 05:50:02;;;;;;;1999.90;999.90;;;;;;;;;;4992928;28;20141;-66
2023/05/17 05:52:30;;;;;;;1999.90;999.90;;;;;;;;;;4992077;28;20087;-66
2023/05/17 05:54:56;;;;;;;1999.90;999.90;;;;;;;;;;4991334;28;20490;-65
2023/05/17 05:57:26;;;;;;;1999.90;999.90;;;;;;;;;;4991647;28;20048;-66
2023/05/17 05:59:52;;;;;;;1999.90;999.90;;;;;;;;;;4992027;28;20117;-63
2023/05/17 06:02:18;;;;;;;1999.90;999.90;;;;;;;;;;5009810;28;20030;-67
2023/05/17 06:04:46;;;;;;;1999.90;999.90;;;;;;;;;;5010088;28;20017;-62
2023/05/17 06:07:19;;;;;;;1999.90;999.90;;;;;;;;;;5010666;28;20088;-67
2023/05/17 06:09:45;;;;;;;1999.90;999.90;;;;;;;;;;5010891;28;20062;-66
2023/05/17 06:12:11;;;;;;;1999.90;999.90;;;;;;;;;;5012648;28;20038;-71
2023/05/17 06:14:41;;;;;;;1999.90;999.90;;;;;;;;;;5012600;28;20484;-72
2023/05/17 06:17:07;;;;;;;1999.90;999.90;;;;;;;;;;5003230;28;20080;-62
2023/05/17 06:19:33;;;;;;;1999.90;999.90;;;;;;;;;;4991796;28;20108;-67
2023/05/17 06:21:59;;;;;;;1999.90;999.90;;;;;;;;;;4991612;28;20125;-70
2023/05/17 06:24:26;;;;;;;1999.90;999.90;;;;;;;;;;4992535;28;20033;-70
2023/05/17 06:26:52;;;;;;;1999.90;999.90;;;;;;;;;;4991628;28;20038;-67
2023/05/17 06:29:18;;;;;;;1999.90;999.90;;;;;;;;;;4993585;28;20026;-60
2023/05/17 06:31:44;;;;;;;1999.90;999.90;;;;;;;;;;5001483;28;20022;-71
2023/05/17 06:34:10;;;;;;;1999.90;999.90;;;;;;;;;;5007773;28;20061;-71
2023/05/17 06:36:36;;;;;;;1999.90;999.90;;;;;;;;;;4994121;28;20034;-71
2023/05/17 06:39:03;;;;;;;1999.90;999.90;;;;;;;;;;5011792;28;20482;-71
2023/05/17 06:41:29;;;;;;;1999.90;999.90;;;;;;;;;;5011046;28;20086;-67
2023/05/17 06:43:55;;;;;;;1999.90;999.90;;;;;;;;;;4976336;28;20046;-64
2023/05/17 06:46:21;;;;;;;1999.90;999.90;;;;;;;;;;4982074;28;20447;-70
2023/05/17 06:48:48;;;;;;;1999.90;999.90;;;;;;;;;;4972532;28;20034;-62
2023/05/17 06:51:14;;;;;;;1999.90;999.90;;;;;;;;;;4955479;28;20047;-72
2023/05/17 06:53:40;;;;;;;1999.90;999.90;;;;;;;;;;4991318;28;20023;-70
2023/05/17 06:56:07;;;;;;;1999.90;999.90;;;;;;;;;;4990537;28;20054;-70
2023/05/17 06:58:52;;;;;;;1999.90;999.90;;;;;;;;;;4990969;28;20050;-70
2023/05/17 07:01:19;;;;;;;1999.90;999.90;;;;;;;;;;4983853;28;20545;-75
2023/05/17 07:03:51;;;;;;;1999.90;999.90;;;;;;;;;;5007211;28;20030;-62
2023/05/17 07:06:17;;;;;;;1999.90;999.90;;;;;;;;;;5010853;28;20037;-62
2023/05/17 07:08:47;;;;;;;1999.90;999.90;;;;;;;;;;4983086;28;20092;-67
2023/05/17 07:11:13;;;;;;;1999.90;999.90;;;;;;;;;;4991005;28;20050;-62
2023/05/17 07:13:39;;;;;;;1999.90;999.90;;;;;;;;;;4973167;28;20081;-58
2023/05/17 07:16:10;;;;;;;1999.90;999.90;;;;;;;;;;4990910;28;20053;-70
2023/05/17 07:18:56;;;;;;;1999.90;999.90;;;;;;;;;;4994193;28;20031;-57
2023/05/17 07:21:23;;;;;;;1999.90;999.90;;;;;;;;;;5010557;28;20061;-57
2023/05/17 07:23:50;;;;;;;1999.90;999.90;;;;;;;;;;5013942;28;20044;-72
2023/05/17 07:26:22;;;;;;;1999.90;999.90;;;;;;;;;;5015098;28;20033;-59
2023/05/17 07:28:48;;;;;;;1999.90;999.90;;;;;;;;;;5013513;28;20037;-69
2023/05/17 07:31:14;;;;;;;1999.90;999.90;;;;;;;;;;4996938;28;20042;-62
2023/05/17 07:33:40;;;;;;;1999.90;999.90;;;;;;;;;;5013378;28;20026;-65
2023/05/17 07:36:07;;;;;;;1999.90;999.90;;;;;;;;;;5014550;28;20068;-61
2023/05/17 07:38:36;;;;;;;1999.90;999.90;;;;;;;;;;5015478;28;20519;-61
2023/05/17 07:41:03;;;;;;;1999.90;999.90;;;;;;;;;;5013609;28;20029;-59
2023/05/17 07:43:29;;;;;;;1999.90;999.90;;;;;;;;;;5014022;28;20109;-69
2023/05/17 07:45:56;;;;;;;1999.90;999.90;;;;;;;;;;5014493;28;20377;-68
2023/05/17 07:48:22;;;;;;;1999.90;999.90;;;;;;;;;;5015709;28;20022;-69
2023/05/17 07:50:48;;;;;;;1999.90;999.90;;;;;;;;;;5002232;28;20035;-70
2023/05/17 07:53:15;;;;;;;1999.90;999.90;;;;;;;;;;4994619;28;20488;-63
2023/05/17 07:55:41;;;;;;;1999.90;999.90;;;;;;;;;;4994086;28;20508;-61
2023/05/17 07:58:10;;;;;;;1999.90;999.90;;;;;;;;;;4976745;28;20560;-62
2023/05/17 08:00:37;;;;;;;1999.90;999.90;;;;;;;;;;4977675;28;20049;-61
2023/05/17 08:03:03;;;;;;;1999.90;999.90;;;;;;;;;;4994924;28;20042;-60
2023/05/17 08:05:29;;;;;;;1999.90;999.90;;;;;;;;;;4994608;28;20065;-67
2023/05/17 08:08:01;;;;;;;1999.90;999.90;;;;;;;;;;4994198;28;20018;-66
2023/05/17 08:10:27;;;;;;;1999.90;999.90;;;;;;;;;;4994261;28;20022;-70
2023/05/17 08:12:53;;;;;;;1999.90;999.90;;;;;;;;;;4993731;28;20260;-61
2023/05/17 08:15:20;;;;;;;1999.90;999.90;;;;;;;;;;4976887;28;20031;-57
2023/05/17 08:17:46;;;;;;;1999.90;999.90;;;;;;;;;;4994029;28;20455;-71
2023/05/17 08:20:12;;;;;;;1999.90;999.90;;;;;;;;;;4977615;28;20408;-58
2023/05/17 08:22:39;;;;;;;1999.90;999.90;;;;;;;;;;4994248;28;20351;-67
2023/05/17 08:25:05;;;;;;;1999.90;999.90;;;;;;;;;;4994669;28;20054;-71
2023/05/17 08:27:31;;;;;;;1999.90;999.90;;;;;;;;;;4994331;28;20050;-66
2023/05/17 08:29:58;;;;;;;1999.90;999.90;;;;;;;;;;4993196;28;20026;-71
2023/05/17 08:32:28;;;;;;;1999.90;999.90;;;;;;;;;;4961226;28;20406;-71
2023/05/17 08:34:54;;;;;;;1999.90;999.90;;;;;;;;;;4994461;28;20050;-59
2023/05/17 08:37:23;;;;;;;1999.90;999.90;;;;;;;;;;4976226;28;20077;-62
2023/05/17 08:39:50;;;;;;;1999.90;999.90;;;;;;;;;;4976445;28;20042;-71
2023/05/17 08:42:24;;;;;;;1999.90;999.90;;;;;;;;;;4993921;28;20037;-71
2023/05/17 08:44:50;;;;;;;1999.90;999.90;;;;;;;;;;4976467;28;20026;-61
2023/05/17 08:47:28;;;;;;;1999.90;999.90;;;;;;;;;;4993288;28;20077;-58
2023/05/17 08:50:03;;;;;;;1999.90;999.90;;;;;;;;;;4993896;28;20109;-61
2023/05/17 08:52:33;;;;;;;1999.90;999.90;;;;;;;;;;4976296;28;20406;-60
2023/05/17 08:55:02;;;;;;;1999.90;999.90;;;;;;;;;;4993067;28;20033;-63
2023/05/17 08:57:32;;;;;;;1999.90;999.90;;;;;;;;;;4993663;28;20385;-69
2023/05/17 09:02:43;;;;;;;1999.90;999.90;;;;;;;;;;4994667;28;20046;-59
2023/05/17 09:05:10;;;;;;;1999.90;999.90;;;;;;;;;;4976194;28;20402;-57
2023/05/17 09:07:36;;;;;;;1999.90;999.90;;;;;;;;;;4992908;28;20038;-65
2023/05/17 09:10:04;;;;;;;1999.90;999.90;;;;;;;;;;4993193;28;20030;-68
2023/05/17 09:12:33;;;;;;;1999.90;999.90;;;;;;;;;;4975950;28;20382;-71
2023/05/17 09:15:21;;;;;;;1999.90;999.90;;;;;;;;;;4993575;28;20026;-69
2023/05/17 09:17:54;;;;;;;1999.90;999.90;;;;;;;;;;4998775;28;20026;-69
2023/05/17 09:20:33;;;;;;;1999.90;999.90;;;;;;;;;;4992859;28;20034;-70
2023/05/17 09:23:06;;;;;;;1999.90;999.90;;;;;;;;;;4993651;28;20049;-71
2023/05/17 09:25:32;;;;;;;1999.90;999.90;;;;;;;;;;4993364;28;20031;-69
2023/05/17 09:28:03;;;;;;;1999.90;999.90;;;;;;;;;;4993140;28;20041;-71
2023/05/17 09:30:30;;;;;;;1999.90;999.90;;;;;;;;;;4991451;28;20497;-69
2023/05/17 09:32:59;;;;;;;1999.90;999.90;;;;;;;;;;4993088;28;20038;-70
2023/05/17 09:35:29;;;;;;;1999.90;999.90;;;;;;;;;;5007358;28;20050;-69
2023/05/17 09:37:57;;;;;;;1999.90;999.90;;;;;;;;;;5012184;28;20042;-67
2023/05/17 09:40:24;;;;;;;1999.90;999.90;;;;;;;;;;4999365;28;20184;-67
2023/05/17 09:42:51;;;;;;;1999.90;999.90;;;;;;;;;;4973377;28;20136;-68
2023/05/17 09:45:23;;;;;;;1999.90;999.90;;;;;;;;;;4973653;28;20030;-68
2023/05/17 09:47:51;;;;;;;1999.90;999.90;;;;;;;;;;4991191;28;20032;-68
2023/05/17 09:50:20;;;;;;;1999.90;999.90;;;;;;;;;;4990294;28;20030;-67
2023/05/17 09:52:47;;;;;;;1999.90;999.90;;;;;;;;;;4990787;28;20478;-68
2023/05/17 09:55:14;;;;;;;1999.90;999.90;;;;;;;;;;4974051;28;20038;-65
2023/05/17 09:57:40;;;;;;;1999.90;999.90;;;;;;;;;;4973446;28;20034;-67
2023/05/17 10:00:11;;;;;;;1999.90;999.90;;;;;;;;;;4973792;28;20095;-68
2023/05/17 10:02:39;;;;;;;1999.90;999.90;;;;;;;;;;4973679;28;20394;-68
2023/05/17 10:05:08;;;;;;;1999.90;999.90;;;;;;;;;;4973509;28;20035;-69
2023/05/17 10:07:35;;;;;;;1999.90;999.90;;;;;;;;;;4973934;28;20037;-70
2023/05/17 10:10:02;;;;;;;1999.90;999.90;;;;;;;;;;4974236;28;20038;-69
2023/05/17 10:12:29;;;;;;;1999.90;999.90;;;;;;;;;;4990653;28;20034;-70
2023/05/17 10:14:58;;;;;;;1999.90;999.90;;;;;;;;;;4990446;28;20034;-69
2023/05/17 10:17:26;;;;;;;1999.90;999.90;;;;;;;;;;4972650;28;20054;-69
2023/05/17 10:19:53;;;;;;;1999.90;999.90;;;;;;;;;;4990115;28;20205;-70
2023/05/17 10:22:22;;;;;;;1999.90;999.90;;;;;;;;;;4972432;28;20030;-62
2023/05/17 10:24:50;;;;;;;1999.90;999.90;;;;;;;;;;4972896;28;20149;-69
2023/05/17 10:27:16;;;;;;;1999.90;999.90;;;;;;;;;;4991341;28;20019;-68
2023/05/17 10:29:43;;;;;;;1999.90;999.90;;;;;;;;;;4991299;28;20478;-67
2023/05/17 10:32:13;;;;;;;1999.90;999.90;;;;;;;;;;4991074;28;20084;-66
2023/05/17 10:34:39;;;;;;;1999.90;999.90;;;;;;;;;;4990262;28;20074;-70
2023/05/17 10:37:06;;;;;;;1999.90;999.90;;;;;;;;;;4990995;28;20038;-69
2023/05/17 10:39:33;;;;;;;1999.90;999.90;;;;;;;;;;4973498;28;20042;-65
2023/05/17 10:42:04;;;;;;;1999.90;999.90;;;;;;;;;;4973710;28;20077;-68
2023/05/17 10:44:32;;;;;;;1999.90;999.90;;;;;;;;;;4991002;28;20464;-68
2023/05/17 10:46:59;;;;;;;1999.90;999.90;;;;;;;;;;4990993;28;20026;-69
2023/05/17 10:49:32;;;;;;;1999.90;999.90;;;;;;;;;;4990595;28;20045;-68
2023/05/17 10:52:18;;;;;;;1999.90;999.90;;;;;;;;;;4990651;28;20045;-68
2023/05/17 10:54:47;;;;;;;1999.90;999.90;;;;;;;;;;4994276;28;20533;-69
2023/05/17 10:57:32;;;;;;;1999.90;999.90;;;;;;;;;;4994937;28;20026;-69
2023/05/17 10:59:59;;;;;;;1999.90;999.90;;;;;;;;;;4976919;28;20874;-68
2023/05/17 11:02:26;;;;;;;1999.90;999.90;;;;;;;;;;4994387;28;20065;-67
2023/05/17 11:04:54;;;;;;;1999.90;999.90;;;;;;;;;;4976868;28;20034;-68
2023/05/17 11:07:36;;;;;;;1999.90;999.90;;;;;;;;;;4977103;28;20073;-66
2023/05/17 11:10:10;;;;;;;1999.90;999.90;;;;;;;;;;5008588;28;20393;-67
2023/05/17 11:12:40;;;;;;;1999.90;999.90;;;;;;;;;;5014547;28;20033;-67
2023/05/17 11:15:09;;;;;;;1999.90;999.90;;;;;;;;;;5014077;28;20026;-68
2023/05/17 11:17:55;;;;;;;1999.90;999.90;;;;;;;;;;5014102;28;20026;-63
2023/05/17 11:20:24;;;;;;;1999.90;999.90;;;;;;;;;;4991469;28;20054;-69
2023/05/17 11:23:04;;;;;;;1999.90;999.90;;;;;;;;;;4976306;28;20039;-69
2023/05/17 11:25:31;;;;;;;1999.90;999.90;;;;;;;;;;4994718;28;20048;-70
2023/05/17 11:28:00;;;;;;;1999.90;999.90;;;;;;;;;;5001557;28;20034;-71
2023/05/17 11:30:29;;;;;;;1999.90;999.90;;;;;;;;;;4992595;28;20056;-62
2023/05/17 11:33:02;;;;;;;1999.90;999.90;;;;;;;;;;5013584;28;20042;-68
2023/05/17 11:35:32;;;;;;;1999.90;999.90;;;;;;;;;;5013946;28;20104;-70
2023/05/17 11:38:13;;;;;;;1999.90;999.90;;;;;;;;;;4996735;28;20033;-73
2023/05/17 11:40:40;;;;;;;1999.90;999.90;;;;;;;;;;5014506;28;20058;-70
2023/05/17 11:43:15;;;;;;;1999.90;999.90;;;;;;;;;;5010178;28;20325;-65
2023/05/17 11:45:43;;;;;;;1999.90;999.90;;;;;;;;;;4984066;28;20103;-64
2023/05/17 11:48:10;;;;;;;1999.90;999.90;;;;;;;;;;5000419;28;20038;-61
2023/05/17 11:50:36;;;;;;;1999.90;999.90;;;;;;;;;;5003695;28;20034;-66
2023/05/17 11:53:05;;;;;;;1999.90;999.90;;;;;;;;;;5013300;28;20026;-70
2023/05/17 11:55:32;;;;;;;1999.90;999.90;;;;;;;;;;4979589;28;20515;-64
2023/05/17 11:57:58;;;;;;;1999.90;999.90;;;;;;;;;;4980933;28;20050;-72
2023/05/17 12:00:27;;;;;;;1999.90;999.90;;;;;;;;;;4995137;28;20062;-63
2023/05/17 12:02:54;;;;;;;1999.90;999.90;;;;;;;;;;4977207;28;20037;-74
2023/05/17 12:05:21;;;;;;;1999.90;999.90;;;;;;;;;;4994667;28;20057;-72
2023/05/17 12:07:51;;;;;;;1999.90;999.90;;;;;;;;;;4977449;28;20026;-71
2023/05/17 12:10:18;;;;;;;1999.90;999.90;;;;;;;;;;4992295;28;20033;-72
2023/05/17 12:12:44;;;;;;;1999.90;999.90;;;;;;;;;;4996709;28;20026;-71
2023/05/17 12:15:17;;;;;;;1999.90;999.90;;;;;;;;;;5013859;28;20026;-62
2023/05/17 12:17:44;;;;;;;1999.90;999.90;;;;;;;;;;5013673;28;20120;-70
2023/05/17 12:20:11;;;;;;;1999.90;999.90;;;;;;;;;;4995144;28;20397;-72
2023/05/17 12:22:56;;;;;;;1999.90;999.90;;;;;;;;;;4995693;28;20099;-69
2023/05/17 12:25:28;;;;;;;1999.90;999.90;;;;;;;;;;5011405;28;20041;-72
2023/05/17 12:28:33;;;;;;;1999.90;999.90;;;;;;;;;;5003742;28;20068;-68
2023/05/17 12:31:02;;;;;;;1999.90;999.90;;;;;;;;;;4913923;29;20036;-67
2023/05/17 12:33:33;;;;;;;1999.90;999.90;;;;;;;;;;4914400;29;20043;-72
2023/05/17 12:35:59;;;;;;;1999.90;999.90;;;;;;;;;;4914937;29;20044;-71
2023/05/17 12:38:31;;;;;;;1999.90;999.90;;;;;;;;;;4933445;29;20090;-58
2023/05/17 12:41:11;;;;;;;1999.90;999.90;;;;;;;;;;4917762;29;20510;-70
2023/05/17 12:43:38;;;;;;;1999.90;999.90;;;;;;;;;;4932433;29;20123;-63
2023/05/17 12:46:34;;;;;;;1999.90;999.90;;;;;;;;;;4932839;29;20043;-70
2023/05/17 12:50:22;;;;;;;;;;;;;;;;;;;;;
2023/05/17 12:52:37;;;;;;;1999.90;999.90;;;;;;;;;;4800619;29;20452;-72
2023/05/17 12:55:42;;;;;;;1999.90;999.90;;;;;;;;;;4805881;29;20043;-71
2023/05/17 13:05:38;;;;;;;1999.90;999.90;;;;;;;;;;4860399;29;20037;-72
2023/05/17 13:11:28;;;;;;;1999.90;999.90;;;;;;;;;;4821001;29;20046;-73
2023/05/17 13:17:53;;;;;;;;;;;;;;;;;;;;;
2023/05/17 13:23:12;;;;;;;;;;;;;;;;;;4784853;29;20524;-72
2023/05/17 13:25:42;;;;;;;1999.90;999.90;;;;;;;;;;4778393;29;19939;-74
2023/05/17 13:28:25;;;;;;;1999.90;999.90;;;;;;;;;;4813349;29;20417;-73
2023/05/17 13:31:24;;;;;;;1999.90;999.90;;;;;;;;;;4824895;29;20409;-71
2023/05/17 13:34:00;;;;;;;1999.90;999.90;;;;;;;;;;4825134;29;20101;-71
2023/05/17 13:39:19;;;;;;;1999.90;999.90;;;;;;;;;;4840988;29;20030;-73
2023/05/17 13:41:46;;;;;;;1999.90;999.90;;;;;;;;;;4798577;29;20080;-72
2023/05/17 13:44:16;;;;;;;1999.90;999.90;;;;;;;;;;4804390;29;20049;-72
2023/05/17 13:49:38;;;;;;;1999.90;999.90;;;;;;;;;;4768883;30;20032;-70
2023/05/17 13:52:12;;;;;;;1999.90;999.90;;;;;;;;;;4809631;29;20041;-70
2023/05/17 13:54:50;;;;;;;1999.90;999.90;;;;;;;;;;4841928;29;20577;-69
2023/05/17 14:00:25;;;;;;;1999.90;999.90;;;;;;;;;;4842911;29;20094;-72
2023/05/17 14:09:20;;;;;;;1999.90;999.90;;;;;;;;;;4824358;29;20070;-73
2023/05/17 14:28:22;;;;;;;1999.90;999.90;;;;;;;;;;4716850;30;20037;-69
2023/05/17 14:33:30;;;;;;;1999.90;999.90;;;;;;;;;;4722749;30;20178;-72
2023/05/17 14:51:34;;;;;;;1999.90;999.90;;;;;;;;;;4731881;29;20047;-72
2023/05/17 14:54:20;;;;;;;1999.90;999.90;;;;;;;;;;4730243;30;20052;-69
2023/05/17 15:00:29;;;;;;;1999.90;999.90;;;;;;;;;;4733133;30;20051;-69
2023/05/17 16:38:29;;;;;;;1999.90;999.90;;;;;;;;;;4751977;30;20397;-76
2023/05/17 16:41:20;;;;;;;1999.90;999.90;;;;;;;;;;4743244;30;20399;-70
2023/05/17 16:51:03;;;;;;;;;;;;;;;;;;;;;
2023/05/17 16:53:34;;;;;;;1999.90;999.90;;;;;;;;;;4735574;30;20037;-73
2023/05/17 16:56:36;;;;;;;;;;;;;;;;;;;;;
2023/05/17 17:18:40;;;;;;;;;;;;;;;;;;;;;
2023/05/17 17:25:17;;;;;;;;;;;;;;;;;;;;;
2023/05/17 17:53:04;;;;;;;;;;;;;;;;;;;;;
2023/05/17 17:56:05;;;;;;;1999.90;999.90;;;;;;;;;;4734804;30;20059;-75
2023/05/17 18:11:55;;;;;;;;;;;;;;;;;;;;;
2023/05/17 18:36:48;;;;;;;;;;;;;;;;;;;;;
2023/05/17 18:43:27;;;;;;;1999.90;999.90;;;;;;;;;;4841046;29;20075;-73
2023/05/17 18:49:39;;;;;;;;;;;;;;;;;;;;;
2023/05/17 18:59:13;;;;;;;1999.90;999.90;;;;;;;;;;4787439;29;20077;-73
2023/05/17 19:02:06;;;;;;;;;;;;;;;;;;;;;
2023/05/17 19:14:55;;;;;;;1999.90;999.90;;;;;;;;;;4624947;31;20052;-71
2023/05/17 20:18:14;;;;;;;1999.90;999.90;;;;;;;;;;4997829;27;4110987;-67
2023/05/17 20:20:46;;;;;;;1999.90;999.90;;;;;;;;;;5130022;28;20023;-68
2023/05/17 20:23:23;;;;;;;1999.90;999.90;;;;;;;;;;5094771;28;20038;-66
2023/05/17 20:25:53;;;;;;;1999.90;999.90;;;;;;;;;;5111640;28;20042;-69
2023/05/17 20:28:19;;;;;;;1999.90;999.90;;;;;;;;;;5130546;28;20035;-69
2023/05/17 20:30:51;;;;;;;1999.90;999.90;;;;;;;;;;5129894;28;20015;-68
2023/05/17 20:33:25;;;;;;;1999.90;999.90;;;;;;;;;;5112275;28;20118;-67
2023/05/17 20:36:06;;;;;;;1999.90;999.90;;;;;;;;;;5110584;28;20488;-68
2023/05/17 20:38:42;;;;;;;1999.90;999.90;;;;;;;;;;5093651;28;20016;-69
2023/05/17 20:41:09;;;;;;;1999.90;999.90;;;;;;;;;;5109986;28;20593;-70
2023/05/17 20:43:36;;;;;;;1999.90;999.90;;;;;;;;;;5091615;28;20475;-69
2023/05/17 20:46:09;;;;;;;1999.90;999.90;;;;;;;;;;5110540;28;20059;-69
2023/05/17 20:48:44;;;;;;;1999.90;999.90;;;;;;;;;;5110483;28;20035;-68
2023/05/17 20:51:11;;;;;;;1999.90;999.90;;;;;;;;;;5090964;28;20043;-66
2023/05/17 20:53:45;;;;;;;1999.90;999.90;;;;;;;;;;5092595;28;20024;-69
2023/05/17 20:56:16;;;;;;;1999.90;999.90;;;;;;;;;;5110626;28;20076;-70
2023/05/17 20:58:55;;;;;;;1999.90;999.90;;;;;;;;;;5082790;28;20048;-69
2023/05/17 21:02:18;;;;;;;1999.90;999.90;;;;;;;;;;5110186;28;20479;-69
2023/05/17 21:04:48;;;;;;;1999.90;999.90;;;;;;;;;;5045072;28;20033;-65
2023/05/17 21:07:23;;;;;;;1999.90;999.90;;;;;;;;;;5046245;28;20048;-72
2023/05/17 21:10:01;;;;;;;1999.90;999.90;;;;;;;;;;5029911;28;20468;-70
2023/05/17 21:12:30;;;;;;;1999.90;999.90;;;;;;;;;;5047423;28;20033;-69
2023/05/17 21:14:59;;;;;;;1999.90;999.90;;;;;;;;;;5029938;28;20056;-70
2023/05/17 21:17:36;;;;;;;1999.90;999.90;;;;;;;;;;5024373;28;20057;-68
2023/05/17 21:20:06;;;;;;;1999.90;999.90;;;;;;;;;;5033771;28;20120;-71
2023/05/17 21:22:43;;;;;;;;;;;;;;;;;;;;;
2023/05/17 21:25:09;;;;;;;1999.90;999.90;;;;;;;;;;5033369;28;20031;-69
2023/05/17 21:27:44;;;;;;;1999.90;999.90;;;;;;;;;;5033015;28;20038;-73
2023/05/17 21:30:18;;;;;;;1999.90;999.90;;;;;;;;;;5032371;28;20057;-72
2023/05/17 21:35:51;;;;;;;1999.90;999.90;;;;;;;;;;5040275;28;20025;-70
2023/05/17 21:38:21;;;;;;;1999.90;999.90;;;;;;;;;;5030557;28;20241;-70
2023/05/17 21:41:06;;;;;;;1999.90;999.90;;;;;;;;;;5067155;28;20033;-71
2023/05/17 21:43:32;;;;;;;1999.90;999.90;;;;;;;;;;5073636;28;20017;-72
2023/05/17 21:46:02;;;;;;;1999.90;999.90;;;;;;;;;;5073819;28;20388;-72
2023/05/17 21:58:03;;;;;;;1999.90;999.90;;;;;;;;;;5006642;28;20636;-71
2023/05/17 22:07:25;;;;;;;1999.90;999.90;;;;;;;;;;4917458;29;20048;-71
2023/05/17 22:13:45;;;;;;;1999.90;999.90;;;;;;;;;;4805914;29;20061;-68
2023/05/17 22:29:32;;;;;;;1999.90;999.90;;;;;;;;;;4704442;30;20048;-72
2023/05/17 23:09:57;;;;;;;1999.90;999.90;;;;;;;;;;5879146;24;20059;-72
2023/05/17 23:15:55;;;;;;;1999.90;999.90;;;;;;;;;;5878802;24;20010;-71
2023/05/17 23:51:11;;;;;;;1999.90;999.90;;;;;;;;;;5741990;25;20084;-73
2023/05/17 23:53:43;;;;;;;1999.90;999.90;;;;;;;;;;5737747;24;20428;-71
